sensor_id;sensor_type;location;lat;lon;timestamp;P1;durP1;ratioP1;P2;durP2;ratioP2
22628;SDS011;11481;53.694;9.910;2023-02-28T00:00:49;4.80;;;2.38;;
22628;SDS011;11481;53.694;9.910;2023-02-28T00:03:16;5.55;;;2.45;;
22628;SDS011;11481;53.694;9.910;2023-02-28T00:05:43;5.47;;;2.00;;
22628;SDS011;11481;53.694;9.910;2023-02-28T00:08:09;5.65;;;2.30;;
22628;SDS011;11481;53.694;9.910;2023-02-28T00:10:37;7.60;;;2.28;;
22628;SDS011;11481;53.694;9.910;2023-02-28T00:13:05;10.32;;;2.40;;
22628;SDS011;11481;53.694;9.910;2023-02-28T00:15:32;7.00;;;2.28;;
22628;SDS011;11481;53.694;9.910;2023-02-28T00:17:59;8.43;;;3.10;;
22628;SDS011;11481;53.694;9.910;2023-02-28T00:20:26;8.68;;;2.75;;
22628;SDS011;11481;53.694;9.910;2023-02-28T00:22:53;4.75;;;2.28;;
22628;SDS011;11481;53.694;9.910;2023-02-28T00:25:22;7.15;;;2.67;;
22628;SDS011;11481;53.694;9.910;2023-02-28T00:27:50;5.80;;;2.30;;
22628;SDS011;11481;53.694;9.910;2023-02-28T00:30:18;3.13;;;1.85;;
22628;SDS011;11481;53.694;9.910;2023-02-28T00:32:47;5.38;;;2.38;;
22628;SDS011;11481;53.694;9.910;2023-02-28T00:35:15;6.18;;;2.00;;
22628;SDS011;11481;53.694;9.910;2023-02-28T00:37:42;8.15;;;2.17;;
22628;SDS011;11481;53.694;9.910;2023-02-28T00:40:10;4.20;;;1.85;;
22628;SDS011;11481;53.694;9.910;2023-02-28T00:42:38;5.43;;;2.28;;
22628;SDS011;11481;53.694;9.910;2023-02-28T00:45:05;4.85;;;2.63;;
22628;SDS011;11481;53.694;9.910;2023-02-28T00:47:32;7.97;;;2.13;;
22628;SDS011;11481;53.694;9.910;2023-02-28T00:49:59;7.07;;;2.60;;
22628;SDS011;11481;53.694;9.910;2023-02-28T00:52:25;4.45;;;1.95;;
22628;SDS011;11481;53.694;9.910;2023-02-28T00:54:52;5.20;;;2.55;;
22628;SDS011;11481;53.694;9.910;2023-02-28T00:57:19;5.90;;;1.90;;
22628;SDS011;11481;53.694;9.910;2023-02-28T00:59:45;4.57;;;1.95;;
22628;SDS011;11481;53.694;9.910;2023-02-28T01:02:12;5.63;;;2.05;;
22628;SDS011;11481;53.694;9.910;2023-02-28T01:04:39;6.65;;;2.47;;
22628;SDS011;11481;53.694;9.910;2023-02-28T01:07:05;3.40;;;1.60;;
22628;SDS011;11481;53.694;9.910;2023-02-28T01:09:32;11.48;;;3.42;;
22628;SDS011;11481;53.694;9.910;2023-02-28T01:11:59;5.50;;;2.20;;
22628;SDS011;11481;53.694;9.910;2023-02-28T01:14:26;3.70;;;1.92;;
22628;SDS011;11481;53.694;9.910;2023-02-28T01:16:52;5.32;;;2.20;;
22628;SDS011;11481;53.694;9.910;2023-02-28T01:19:19;5.90;;;2.17;;
22628;SDS011;11481;53.694;9.910;2023-02-28T01:21:46;5.70;;;1.80;;
22628;SDS011;11481;53.694;9.910;2023-02-28T01:24:13;4.22;;;2.05;;
22628;SDS011;11481;53.694;9.910;2023-02-28T01:26:39;3.20;;;1.48;;
22628;SDS011;11481;53.694;9.910;2023-02-28T01:29:06;5.85;;;2.28;;
22628;SDS011;11481;53.694;9.910;2023-02-28T01:31:32;5.45;;;2.30;;
22628;SDS011;11481;53.694;9.910;2023-02-28T01:33:59;6.65;;;2.38;;
22628;SDS011;11481;53.694;9.910;2023-02-28T01:36:26;6.50;;;2.55;;
22628;SDS011;11481;53.694;9.910;2023-02-28T01:38:53;9.10;;;2.53;;
22628;SDS011;11481;53.694;9.910;2023-02-28T01:41:21;5.88;;;1.85;;
22628;SDS011;11481;53.694;9.910;2023-02-28T01:43:58;6.35;;;2.22;;
22628;SDS011;11481;53.694;9.910;2023-02-28T01:46:33;4.95;;;2.28;;
22628;SDS011;11481;53.694;9.910;2023-02-28T01:49:05;6.55;;;2.10;;
22628;SDS011;11481;53.694;9.910;2023-02-28T01:51:38;6.75;;;2.25;;
22628;SDS011;11481;53.694;9.910;2023-02-28T01:54:12;5.28;;;1.90;;
22628;SDS011;11481;53.694;9.910;2023-02-28T01:56:47;8.30;;;2.15;;
22628;SDS011;11481;53.694;9.910;2023-02-28T01:59:29;4.32;;;1.95;;
22628;SDS011;11481;53.694;9.910;2023-02-28T02:02:06;4.65;;;1.80;;
22628;SDS011;11481;53.694;9.910;2023-02-28T02:04:38;6.88;;;2.28;;
22628;SDS011;11481;53.694;9.910;2023-02-28T02:07:08;3.90;;;1.52;;
22628;SDS011;11481;53.694;9.910;2023-02-28T02:09:35;11.73;;;3.38;;
22628;SDS011;11481;53.694;9.910;2023-02-28T02:12:05;3.75;;;1.80;;
22628;SDS011;11481;53.694;9.910;2023-02-28T02:15:07;3.72;;;1.73;;
22628;SDS011;11481;53.694;9.910;2023-02-28T02:17:44;6.13;;;2.28;;
22628;SDS011;11481;53.694;9.910;2023-02-28T02:20:24;4.70;;;1.90;;
22628;SDS011;11481;53.694;9.910;2023-02-28T02:29:53;10.32;;;1.67;;
22628;SDS011;11481;53.694;9.910;2023-02-28T02:35:40;6.03;;;2.13;;
22628;SDS011;11481;53.694;9.910;2023-02-28T02:41:08;7.63;;;2.17;;
22628;SDS011;11481;53.694;9.910;2023-02-28T02:44:06;4.18;;;1.80;;
22628;SDS011;11481;53.694;9.910;2023-02-28T02:46:41;3.65;;;1.65;;
22628;SDS011;11481;53.694;9.910;2023-02-28T02:49:15;3.08;;;1.27;;
22628;SDS011;11481;53.694;9.910;2023-02-28T02:51:47;5.43;;;1.60;;
22628;SDS011;11481;53.694;9.910;2023-02-28T02:54:17;3.67;;;2.08;;
22628;SDS011;11481;53.694;9.910;2023-02-28T02:56:47;4.07;;;1.33;;
22628;SDS011;11481;53.694;9.910;2023-02-28T02:59:16;4.82;;;2.03;;
22628;SDS011;11481;53.694;9.910;2023-02-28T03:01:51;5.70;;;1.55;;
22628;SDS011;11481;53.694;9.910;2023-02-28T03:04:22;3.00;;;1.33;;
22628;SDS011;11481;53.694;9.910;2023-02-28T03:06:51;5.55;;;1.60;;
22628;SDS011;11481;53.694;9.910;2023-02-28T03:09:24;4.20;;;1.70;;
22628;SDS011;11481;53.694;9.910;2023-02-28T03:11:53;5.78;;;1.73;;
22628;SDS011;11481;53.694;9.910;2023-02-28T03:14:25;4.80;;;1.52;;
22628;SDS011;11481;53.694;9.910;2023-02-28T03:17:14;2.90;;;1.38;;
22628;SDS011;11481;53.694;9.910;2023-02-28T03:22:57;2.72;;;1.40;;
22628;SDS011;11481;53.694;9.910;2023-02-28T03:25:37;6.70;;;1.80;;
22628;SDS011;11481;53.694;9.910;2023-02-28T03:28:22;2.05;;;1.23;;
22628;SDS011;11481;53.694;9.910;2023-02-28T03:31:00;5.25;;;1.67;;
22628;SDS011;11481;53.694;9.910;2023-02-28T03:33:36;5.90;;;2.20;;
22628;SDS011;11481;53.694;9.910;2023-02-28T03:36:10;4.65;;;1.35;;
22628;SDS011;11481;53.694;9.910;2023-02-28T03:38:45;6.13;;;1.48;;
22628;SDS011;11481;53.694;9.910;2023-02-28T03:41:18;3.90;;;1.55;;
22628;SDS011;11481;53.694;9.910;2023-02-28T03:43:54;4.45;;;1.80;;
22628;SDS011;11481;53.694;9.910;2023-02-28T03:46:24;3.15;;;1.77;;
22628;SDS011;11481;53.694;9.910;2023-02-28T03:51:41;4.80;;;1.85;;
22628;SDS011;11481;53.694;9.910;2023-02-28T03:54:12;3.85;;;1.40;;
22628;SDS011;11481;53.694;9.910;2023-02-28T03:56:46;4.25;;;1.75;;
22628;SDS011;11481;53.694;9.910;2023-02-28T03:59:21;2.88;;;1.27;;
22628;SDS011;11481;53.694;9.910;2023-02-28T04:01:52;3.42;;;1.42;;
22628;SDS011;11481;53.694;9.910;2023-02-28T04:04:19;2.40;;;0.85;;
22628;SDS011;11481;53.694;9.910;2023-02-28T04:06:45;2.85;;;1.70;;
22628;SDS011;11481;53.694;9.910;2023-02-28T04:09:16;9.40;;;1.50;;
22628;SDS011;11481;53.694;9.910;2023-02-28T04:11:50;5.38;;;1.90;;
22628;SDS011;11481;53.694;9.910;2023-02-28T04:14:18;4.57;;;1.23;;
22628;SDS011;11481;53.694;9.910;2023-02-28T04:16:45;5.30;;;1.90;;
22628;SDS011;11481;53.694;9.910;2023-02-28T04:19:12;3.88;;;1.63;;
22628;SDS011;11481;53.694;9.910;2023-02-28T04:21:41;4.03;;;1.80;;
22628;SDS011;11481;53.694;9.910;2023-02-28T04:24:13;2.90;;;1.30;;
22628;SDS011;11481;53.694;9.910;2023-02-28T04:26:45;3.47;;;1.08;;
22628;SDS011;11481;53.694;9.910;2023-02-28T04:29:18;5.55;;;2.05;;
22628;SDS011;11481;53.694;9.910;2023-02-28T04:31:55;2.95;;;1.25;;
22628;SDS011;11481;53.694;9.910;2023-02-28T04:34:26;2.97;;;1.20;;
22628;SDS011;11481;53.694;9.910;2023-02-28T04:36:54;4.32;;;1.45;;
22628;SDS011;11481;53.694;9.910;2023-02-28T04:39:38;3.20;;;1.20;;
22628;SDS011;11481;53.694;9.910;2023-02-28T04:42:05;2.22;;;1.27;;
22628;SDS011;11481;53.694;9.910;2023-02-28T04:44:31;4.15;;;1.33;;
22628;SDS011;11481;53.694;9.910;2023-02-28T04:46:58;4.20;;;1.20;;
22628;SDS011;11481;53.694;9.910;2023-02-28T04:49:25;4.00;;;1.83;;
22628;SDS011;11481;53.694;9.910;2023-02-28T04:51:52;11.20;;;2.30;;
22628;SDS011;11481;53.694;9.910;2023-02-28T04:54:19;4.60;;;1.67;;
22628;SDS011;11481;53.694;9.910;2023-02-28T04:56:46;7.18;;;1.75;;
22628;SDS011;11481;53.694;9.910;2023-02-28T04:59:14;3.85;;;1.00;;
22628;SDS011;11481;53.694;9.910;2023-02-28T05:01:45;3.67;;;1.23;;
22628;SDS011;11481;53.694;9.910;2023-02-28T05:04:12;7.30;;;1.33;;
22628;SDS011;11481;53.694;9.910;2023-02-28T05:06:39;6.28;;;1.30;;
22628;SDS011;11481;53.694;9.910;2023-02-28T05:09:06;2.45;;;1.17;;
22628;SDS011;11481;53.694;9.910;2023-02-28T05:11:33;3.03;;;1.30;;
22628;SDS011;11481;53.694;9.910;2023-02-28T05:14:02;5.53;;;1.67;;
22628;SDS011;11481;53.694;9.910;2023-02-28T05:16:39;2.88;;;1.45;;
22628;SDS011;11481;53.694;9.910;2023-02-28T05:19:06;4.18;;;1.75;;
22628;SDS011;11481;53.694;9.910;2023-02-28T05:21:34;4.28;;;2.05;;
22628;SDS011;11481;53.694;9.910;2023-02-28T05:24:04;2.72;;;1.25;;
22628;SDS011;11481;53.694;9.910;2023-02-28T05:26:39;3.13;;;1.40;;
22628;SDS011;11481;53.694;9.910;2023-02-28T05:29:07;2.05;;;1.40;;
22628;SDS011;11481;53.694;9.910;2023-02-28T05:31:35;1.33;;;0.85;;
22628;SDS011;11481;53.694;9.910;2023-02-28T05:34:02;1.40;;;1.00;;
22628;SDS011;11481;53.694;9.910;2023-02-28T05:36:31;6.70;;;1.50;;
22628;SDS011;11481;53.694;9.910;2023-02-28T05:38:58;5.65;;;1.55;;
22628;SDS011;11481;53.694;9.910;2023-02-28T05:41:25;2.88;;;1.80;;
22628;SDS011;11481;53.694;9.910;2023-02-28T05:43:52;3.88;;;1.88;;
22628;SDS011;11481;53.694;9.910;2023-02-28T05:46:19;1.90;;;1.20;;
22628;SDS011;11481;53.694;9.910;2023-02-28T05:48:46;2.28;;;1.20;;
22628;SDS011;11481;53.694;9.910;2023-02-28T05:51:14;2.22;;;1.00;;
22628;SDS011;11481;53.694;9.910;2023-02-28T05:53:41;7.15;;;1.83;;
22628;SDS011;11481;53.694;9.910;2023-02-28T05:56:08;3.88;;;1.80;;
22628;SDS011;11481;53.694;9.910;2023-02-28T05:58:34;3.20;;;1.50;;
22628;SDS011;11481;53.694;9.910;2023-02-28T06:01:19;4.10;;;2.15;;
22628;SDS011;11481;53.694;9.910;2023-02-28T06:03:51;2.47;;;1.77;;
22628;SDS011;11481;53.694;9.910;2023-02-28T06:06:17;8.35;;;2.03;;
22628;SDS011;11481;53.694;9.910;2023-02-28T06:08:44;5.65;;;2.35;;
22628;SDS011;11481;53.694;9.910;2023-02-28T06:11:12;5.22;;;2.45;;
22628;SDS011;11481;53.694;9.910;2023-02-28T06:13:39;4.72;;;2.60;;
22628;SDS011;11481;53.694;9.910;2023-02-28T06:16:05;3.42;;;1.98;;
22628;SDS011;11481;53.694;9.910;2023-02-28T06:18:33;4.53;;;1.88;;
22628;SDS011;11481;53.694;9.910;2023-02-28T06:21:00;4.45;;;2.35;;
22628;SDS011;11481;53.694;9.910;2023-02-28T06:23:27;3.58;;;2.22;;
22628;SDS011;11481;53.694;9.910;2023-02-28T06:25:54;4.70;;;1.92;;
22628;SDS011;11481;53.694;9.910;2023-02-28T06:28:24;4.88;;;2.13;;
22628;SDS011;11481;53.694;9.910;2023-02-28T06:30:52;5.22;;;1.60;;
22628;SDS011;11481;53.694;9.910;2023-02-28T06:33:18;3.70;;;1.38;;
22628;SDS011;11481;53.694;9.910;2023-02-28T06:35:51;6.53;;;1.65;;
22628;SDS011;11481;53.694;9.910;2023-02-28T06:38:20;4.05;;;2.15;;
22628;SDS011;11481;53.694;9.910;2023-02-28T06:40:52;6.32;;;1.73;;
22628;SDS011;11481;53.694;9.910;2023-02-28T06:43:23;3.97;;;2.20;;
22628;SDS011;11481;53.694;9.910;2023-02-28T06:45:54;6.63;;;2.10;;
22628;SDS011;11481;53.694;9.910;2023-02-28T06:48:23;3.92;;;1.95;;
22628;SDS011;11481;53.694;9.910;2023-02-28T06:50:51;3.03;;;1.60;;
22628;SDS011;11481;53.694;9.910;2023-02-28T06:53:17;4.38;;;1.63;;
22628;SDS011;11481;53.694;9.910;2023-02-28T06:55:46;2.25;;;1.27;;
22628;SDS011;11481;53.694;9.910;2023-02-28T06:58:13;4.78;;;2.05;;
22628;SDS011;11481;53.694;9.910;2023-02-28T07:00:46;2.53;;;1.30;;
22628;SDS011;11481;53.694;9.910;2023-02-28T07:03:16;4.47;;;1.95;;
22628;SDS011;11481;53.694;9.910;2023-02-28T07:05:44;5.85;;;2.28;;
22628;SDS011;11481;53.694;9.910;2023-02-28T07:08:11;3.60;;;2.10;;
22628;SDS011;11481;53.694;9.910;2023-02-28T07:10:41;5.95;;;2.50;;
22628;SDS011;11481;53.694;9.910;2023-02-28T07:13:08;5.28;;;2.30;;
22628;SDS011;11481;53.694;9.910;2023-02-28T07:15:36;4.80;;;2.15;;
22628;SDS011;11481;53.694;9.910;2023-02-28T07:18:08;4.28;;;2.10;;
22628;SDS011;11481;53.694;9.910;2023-02-28T07:20:36;5.07;;;2.72;;
22628;SDS011;11481;53.694;9.910;2023-02-28T07:23:02;5.72;;;2.75;;
22628;SDS011;11481;53.694;9.910;2023-02-28T07:25:29;14.50;;;2.67;;
22628;SDS011;11481;53.694;9.910;2023-02-28T07:27:56;4.45;;;1.83;;
22628;SDS011;11481;53.694;9.910;2023-02-28T07:30:25;2.50;;;1.60;;
22628;SDS011;11481;53.694;9.910;2023-02-28T07:32:52;5.50;;;2.00;;
22628;SDS011;11481;53.694;9.910;2023-02-28T07:35:20;6.82;;;2.03;;
22628;SDS011;11481;53.694;9.910;2023-02-28T07:37:48;4.43;;;2.00;;
22628;SDS011;11481;53.694;9.910;2023-02-28T07:40:15;7.03;;;2.05;;
22628;SDS011;11481;53.694;9.910;2023-02-28T07:42:44;5.68;;;2.08;;
22628;SDS011;11481;53.694;9.910;2023-02-28T07:45:11;3.65;;;1.48;;
22628;SDS011;11481;53.694;9.910;2023-02-28T07:47:38;5.28;;;2.25;;
22628;SDS011;11481;53.694;9.910;2023-02-28T07:50:06;4.07;;;1.52;;
22628;SDS011;11481;53.694;9.910;2023-02-28T07:52:38;7.43;;;1.70;;
22628;SDS011;11481;53.694;9.910;2023-02-28T07:55:05;5.35;;;2.08;;
22628;SDS011;11481;53.694;9.910;2023-02-28T07:57:33;5.85;;;2.63;;
22628;SDS011;11481;53.694;9.910;2023-02-28T08:00:00;3.47;;;1.90;;
22628;SDS011;11481;53.694;9.910;2023-02-28T08:02:33;3.38;;;1.88;;
22628;SDS011;11481;53.694;9.910;2023-02-28T08:05:00;6.35;;;1.77;;
22628;SDS011;11481;53.694;9.910;2023-02-28T08:07:27;4.57;;;1.92;;
22628;SDS011;11481;53.694;9.910;2023-02-28T08:09:54;7.97;;;1.45;;
22628;SDS011;11481;53.694;9.910;2023-02-28T08:12:20;5.85;;;1.50;;
22628;SDS011;11481;53.694;9.910;2023-02-28T08:14:47;5.93;;;2.17;;
22628;SDS011;11481;53.694;9.910;2023-02-28T08:17:14;4.60;;;1.80;;
22628;SDS011;11481;53.694;9.910;2023-02-28T08:19:41;4.75;;;1.55;;
22628;SDS011;11481;53.694;9.910;2023-02-28T08:22:08;3.15;;;1.48;;
22628;SDS011;11481;53.694;9.910;2023-02-28T08:24:34;4.78;;;2.00;;
22628;SDS011;11481;53.694;9.910;2023-02-28T08:27:01;1.80;;;1.10;;
22628;SDS011;11481;53.694;9.910;2023-02-28T08:29:28;4.80;;;1.73;;
22628;SDS011;11481;53.694;9.910;2023-02-28T08:31:56;4.57;;;1.77;;
22628;SDS011;11481;53.694;9.910;2023-02-28T08:34:24;3.50;;;1.10;;
22628;SDS011;11481;53.694;9.910;2023-02-28T08:36:50;3.75;;;1.65;;
22628;SDS011;11481;53.694;9.910;2023-02-28T08:39:17;4.07;;;1.27;;
22628;SDS011;11481;53.694;9.910;2023-02-28T08:41:45;3.67;;;1.67;;
22628;SDS011;11481;53.694;9.910;2023-02-28T08:44:18;5.57;;;1.23;;
22628;SDS011;11481;53.694;9.910;2023-02-28T08:46:45;4.32;;;1.75;;
22628;SDS011;11481;53.694;9.910;2023-02-28T08:49:12;2.28;;;1.20;;
22628;SDS011;11481;53.694;9.910;2023-02-28T08:51:38;5.65;;;1.48;;
22628;SDS011;11481;53.694;9.910;2023-02-28T08:54:07;2.17;;;1.40;;
22628;SDS011;11481;53.694;9.910;2023-02-28T08:56:35;8.70;;;1.60;;
22628;SDS011;11481;53.694;9.910;2023-02-28T08:59:02;1.92;;;1.00;;
22628;SDS011;11481;53.694;9.910;2023-02-28T09:01:29;2.95;;;1.10;;
22628;SDS011;11481;53.694;9.910;2023-02-28T09:03:58;6.07;;;1.67;;
22628;SDS011;11481;53.694;9.910;2023-02-28T09:06:25;8.48;;;1.80;;
22628;SDS011;11481;53.694;9.910;2023-02-28T09:08:55;4.28;;;1.40;;
22628;SDS011;11481;53.694;9.910;2023-02-28T09:11:24;2.30;;;1.00;;
22628;SDS011;11481;53.694;9.910;2023-02-28T09:13:51;2.65;;;1.13;;
22628;SDS011;11481;53.694;9.910;2023-02-28T09:16:18;2.90;;;0.90;;
22628;SDS011;11481;53.694;9.910;2023-02-28T09:18:45;1.65;;;0.77;;
22628;SDS011;11481;53.694;9.910;2023-02-28T09:21:12;5.00;;;1.42;;
22628;SDS011;11481;53.694;9.910;2023-02-28T09:23:42;13.25;;;5.38;;
22628;SDS011;11481;53.694;9.910;2023-02-28T09:26:16;16.02;;;3.40;;
22628;SDS011;11481;53.694;9.910;2023-02-28T09:28:46;3.88;;;2.00;;
22628;SDS011;11481;53.694;9.910;2023-02-28T09:31:14;3.75;;;1.45;;
22628;SDS011;11481;53.694;9.910;2023-02-28T09:33:43;8.20;;;3.08;;
22628;SDS011;11481;53.694;9.910;2023-02-28T09:36:09;5.05;;;2.80;;
22628;SDS011;11481;53.694;9.910;2023-02-28T09:38:36;7.00;;;3.42;;
22628;SDS011;11481;53.694;9.910;2023-02-28T09:41:08;5.95;;;2.58;;
22628;SDS011;11481;53.694;9.910;2023-02-28T09:43:41;5.18;;;1.60;;
22628;SDS011;11481;53.694;9.910;2023-02-28T09:46:25;4.85;;;1.35;;
22628;SDS011;11481;53.694;9.910;2023-02-28T09:48:55;2.30;;;1.05;;
22628;SDS011;11481;53.694;9.910;2023-02-28T09:53:56;5.25;;;1.63;;
22628;SDS011;11481;53.694;9.910;2023-02-28T09:56:29;5.63;;;2.17;;
22628;SDS011;11481;53.694;9.910;2023-02-28T09:59:01;7.90;;;1.83;;
22628;SDS011;11481;53.694;9.910;2023-02-28T10:01:39;5.28;;;1.73;;
22628;SDS011;11481;53.694;9.910;2023-02-28T10:06:49;4.75;;;1.15;;
22628;SDS011;11481;53.694;9.910;2023-02-28T10:09:21;1.88;;;0.82;;
22628;SDS011;11481;53.694;9.910;2023-02-28T10:11:53;2.90;;;1.10;;
22628;SDS011;11481;53.694;9.910;2023-02-28T10:14:24;3.95;;;1.08;;
22628;SDS011;11481;53.694;9.910;2023-02-28T10:19:44;2.67;;;1.00;;
22628;SDS011;11481;53.694;9.910;2023-02-28T10:22:20;1.85;;;0.93;;
22628;SDS011;11481;53.694;9.910;2023-02-28T10:24:52;2.85;;;1.30;;
22628;SDS011;11481;53.694;9.910;2023-02-28T10:27:23;1.98;;;1.10;;
22628;SDS011;11481;53.694;9.910;2023-02-28T10:29:54;2.92;;;1.10;;
22628;SDS011;11481;53.694;9.910;2023-02-28T10:32:24;2.80;;;1.05;;
22628;SDS011;11481;53.694;9.910;2023-02-28T10:34:59;6.90;;;0.90;;
22628;SDS011;11481;53.694;9.910;2023-02-28T10:37:38;2.08;;;1.23;;
22628;SDS011;11481;53.694;9.910;2023-02-28T10:43:33;2.65;;;1.25;;
22628;SDS011;11481;53.694;9.910;2023-02-28T10:45:54;3.88;;;1.00;;
22628;SDS011;11481;53.694;9.910;2023-02-28T10:48:50;1.73;;;0.73;;
22628;SDS011;11481;53.694;9.910;2023-02-28T10:51:37;2.83;;;0.90;;
22628;SDS011;11481;53.694;9.910;2023-02-28T10:54:13;1.23;;;0.75;;
22628;SDS011;11481;53.694;9.910;2023-02-28T10:57:08;2.80;;;0.73;;
22628;SDS011;11481;53.694;9.910;2023-02-28T10:59:52;3.17;;;0.90;;
22628;SDS011;11481;53.694;9.910;2023-02-28T11:02:36;2.13;;;0.73;;
22628;SDS011;11481;53.694;9.910;2023-02-28T11:05:22;2.03;;;1.17;;
22628;SDS011;11481;53.694;9.910;2023-02-28T11:07:56;3.05;;;1.00;;
22628;SDS011;11481;53.694;9.910;2023-02-28T11:10:45;2.03;;;0.85;;
22628;SDS011;11481;53.694;9.910;2023-02-28T11:13:17;2.08;;;1.10;;
22628;SDS011;11481;53.694;9.910;2023-02-28T11:15:55;3.33;;;0.80;;
22628;SDS011;11481;53.694;9.910;2023-02-28T11:18:29;2.08;;;0.93;;
22628;SDS011;11481;53.694;9.910;2023-02-28T11:21:00;1.52;;;0.75;;
22628;SDS011;11481;53.694;9.910;2023-02-28T11:23:29;4.45;;;1.30;;
22628;SDS011;11481;53.694;9.910;2023-02-28T11:26:02;2.28;;;0.73;;
22628;SDS011;11481;53.694;9.910;2023-02-28T11:31:04;2.72;;;1.05;;
22628;SDS011;11481;53.694;9.910;2023-02-28T11:33:41;7.70;;;1.42;;
22628;SDS011;11481;53.694;9.910;2023-02-28T11:36:23;2.65;;;0.80;;
22628;SDS011;11481;53.694;9.910;2023-02-28T11:38:56;2.92;;;0.90;;
22628;SDS011;11481;53.694;9.910;2023-02-28T11:44:07;1.15;;;0.90;;
22628;SDS011;11481;53.694;9.910;2023-02-28T11:46:49;3.13;;;0.90;;
22628;SDS011;11481;53.694;9.910;2023-02-28T11:49:32;4.80;;;1.00;;
22628;SDS011;11481;53.694;9.910;2023-02-28T11:57:46;2.47;;;1.05;;
22628;SDS011;11481;53.694;9.910;2023-02-28T12:00:39;2.72;;;0.80;;
22628;SDS011;11481;53.694;9.910;2023-02-28T12:03:36;2.03;;;0.90;;
22628;SDS011;11481;53.694;9.910;2023-02-28T12:09:33;3.65;;;1.10;;
22628;SDS011;11481;53.694;9.910;2023-02-28T12:12:21;2.80;;;1.05;;
22628;SDS011;11481;53.694;9.910;2023-02-28T12:26:00;3.40;;;1.10;;
22628;SDS011;11481;53.694;9.910;2023-02-28T12:28:31;2.05;;;0.90;;
22628;SDS011;11481;53.694;9.910;2023-02-28T12:31:06;2.58;;;1.00;;
22628;SDS011;11481;53.694;9.910;2023-02-28T12:33:48;2.13;;;1.08;;
22628;SDS011;11481;53.694;9.910;2023-02-28T12:36:19;3.53;;;1.13;;
22628;SDS011;11481;53.694;9.910;2023-02-28T12:41:46;3.58;;;0.90;;
22628;SDS011;11481;53.694;9.910;2023-02-28T12:44:35;2.53;;;0.90;;
22628;SDS011;11481;53.694;9.910;2023-02-28T12:47:15;3.15;;;0.95;;
22628;SDS011;11481;53.694;9.910;2023-02-28T12:52:21;2.67;;;1.23;;
22628;SDS011;11481;53.694;9.910;2023-02-28T12:55:08;2.53;;;1.00;;
22628;SDS011;11481;53.694;9.910;2023-02-28T13:00:17;1.67;;;1.00;;
22628;SDS011;11481;53.694;9.910;2023-02-28T13:03:00;2.03;;;1.08;;
22628;SDS011;11481;53.694;9.910;2023-02-28T13:14:19;2.38;;;1.20;;
22628;SDS011;11481;53.694;9.910;2023-02-28T13:19:44;3.88;;;1.58;;
22628;SDS011;11481;53.694;9.910;2023-02-28T13:22:36;2.50;;;1.15;;
22628;SDS011;11481;53.694;9.910;2023-02-28T13:25:59;3.63;;;2.00;;
22628;SDS011;11481;53.694;9.910;2023-02-28T13:31:16;2.97;;;1.02;;
22628;SDS011;11481;53.694;9.910;2023-02-28T13:44:04;4.22;;;1.10;;
22628;SDS011;11481;53.694;9.910;2023-02-28T13:49:23;3.15;;;0.98;;
22628;SDS011;11481;53.694;9.910;2023-02-28T14:05:32;3.15;;;1.42;;
22628;SDS011;11481;53.694;9.910;2023-02-28T14:08:05;3.10;;;1.13;;
22628;SDS011;11481;53.694;9.910;2023-02-28T14:10:49;4.40;;;1.50;;
22628;SDS011;11481;53.694;9.910;2023-02-28T14:16:13;2.63;;;1.15;;
22628;SDS011;11481;53.694;9.910;2023-02-28T14:18:48;3.30;;;1.00;;
22628;SDS011;11481;53.694;9.910;2023-02-28T14:21:29;4.43;;;1.20;;
22628;SDS011;11481;53.694;9.910;2023-02-28T14:35:57;2.30;;;1.05;;
22628;SDS011;11481;53.694;9.910;2023-02-28T14:38:40;1.90;;;1.00;;
22628;SDS011;11481;53.694;9.910;2023-02-28T14:41:15;3.00;;;1.00;;
22628;SDS011;11481;53.694;9.910;2023-02-28T14:43:58;5.20;;;1.02;;
22628;SDS011;11481;53.694;9.910;2023-02-28T14:46:35;3.70;;;1.20;;
22628;SDS011;11481;53.694;9.910;2023-02-28T14:49:05;4.53;;;1.13;;
22628;SDS011;11481;53.694;9.910;2023-02-28T14:51:36;2.55;;;1.05;;
22628;SDS011;11481;53.694;9.910;2023-02-28T14:54:02;1.52;;;0.82;;
22628;SDS011;11481;53.694;9.910;2023-02-28T14:56:33;1.30;;;0.50;;
22628;SDS011;11481;53.694;9.910;2023-02-28T14:59:03;1.73;;;1.00;;
22628;SDS011;11481;53.694;9.910;2023-02-28T15:01:31;1.60;;;0.75;;
22628;SDS011;11481;53.694;9.910;2023-02-28T15:04:04;4.53;;;1.20;;
22628;SDS011;11481;53.694;9.910;2023-02-28T15:06:32;4.07;;;0.90;;
22628;SDS011;11481;53.694;9.910;2023-02-28T15:09:15;1.15;;;0.70;;
22628;SDS011;11481;53.694;9.910;2023-02-28T15:11:45;1.67;;;0.90;;
22628;SDS011;11481;53.694;9.910;2023-02-28T15:14:19;5.10;;;1.02;;
22628;SDS011;11481;53.694;9.910;2023-02-28T15:16:49;3.30;;;0.82;;
22628;SDS011;11481;53.694;9.910;2023-02-28T15:19:28;3.78;;;0.88;;
22628;SDS011;11481;53.694;9.910;2023-02-28T15:21:59;5.13;;;1.00;;
22628;SDS011;11481;53.694;9.910;2023-02-28T15:24:40;2.03;;;0.98;;
22628;SDS011;11481;53.694;9.910;2023-02-28T15:27:12;2.45;;;0.82;;
22628;SDS011;11481;53.694;9.910;2023-02-28T15:29:43;1.48;;;0.85;;
22628;SDS011;11481;53.694;9.910;2023-02-28T15:42:57;2.85;;;1.00;;
22628;SDS011;11481;53.694;9.910;2023-02-28T15:45:59;1.80;;;0.70;;
22628;SDS011;11481;53.694;9.910;2023-02-28T15:48:30;2.17;;;0.85;;
22628;SDS011;11481;53.694;9.910;2023-02-28T15:51:07;1.42;;;0.90;;
22628;SDS011;11481;53.694;9.910;2023-02-28T15:56:26;3.22;;;1.05;;
22628;SDS011;11481;53.694;9.910;2023-02-28T15:58:54;0.82;;;0.60;;
22628;SDS011;11481;53.694;9.910;2023-02-28T16:01:27;2.88;;;1.08;;
22628;SDS011;11481;53.694;9.910;2023-02-28T16:04:05;4.00;;;0.80;;
22628;SDS011;11481;53.694;9.910;2023-02-28T16:09:25;3.65;;;1.33;;
22628;SDS011;11481;53.694;9.910;2023-02-28T16:11:54;2.35;;;0.88;;
22628;SDS011;11481;53.694;9.910;2023-02-28T16:14:23;2.47;;;1.10;;
22628;SDS011;11481;53.694;9.910;2023-02-28T16:16:54;2.03;;;0.90;;
22628;SDS011;11481;53.694;9.910;2023-02-28T16:19:23;5.53;;;1.45;;
22628;SDS011;11481;53.694;9.910;2023-02-28T16:21:50;2.53;;;1.05;;
22628;SDS011;11481;53.694;9.910;2023-02-28T16:24:17;2.05;;;1.10;;
22628;SDS011;11481;53.694;9.910;2023-02-28T16:26:47;1.52;;;0.90;;
22628;SDS011;11481;53.694;9.910;2023-02-28T16:29:24;4.75;;;0.90;;
22628;SDS011;11481;53.694;9.910;2023-02-28T16:32:00;3.97;;;1.02;;
22628;SDS011;11481;53.694;9.910;2023-02-28T16:34:30;3.47;;;1.15;;
22628;SDS011;11481;53.694;9.910;2023-02-28T16:36:56;3.42;;;0.90;;
22628;SDS011;11481;53.694;9.910;2023-02-28T16:39:24;4.95;;;1.05;;
22628;SDS011;11481;53.694;9.910;2023-02-28T16:41:51;2.00;;;1.20;;
22628;SDS011;11481;53.694;9.910;2023-02-28T16:44:28;3.95;;;1.30;;
22628;SDS011;11481;53.694;9.910;2023-02-28T16:46:59;3.70;;;1.25;;
22628;SDS011;11481;53.694;9.910;2023-02-28T16:49:26;3.45;;;1.30;;
22628;SDS011;11481;53.694;9.910;2023-02-28T16:51:53;2.55;;;1.20;;
22628;SDS011;11481;53.694;9.910;2023-02-28T16:54:20;3.30;;;1.40;;
22628;SDS011;11481;53.694;9.910;2023-02-28T16:56:46;2.75;;;1.00;;
22628;SDS011;11481;53.694;9.910;2023-02-28T16:59:16;6.75;;;1.20;;
22628;SDS011;11481;53.694;9.910;2023-02-28T17:01:45;4.88;;;1.80;;
22628;SDS011;11481;53.694;9.910;2023-02-28T17:04:12;3.45;;;1.42;;
22628;SDS011;11481;53.694;9.910;2023-02-28T17:06:40;3.70;;;1.60;;
22628;SDS011;11481;53.694;9.910;2023-02-28T17:09:14;3.75;;;1.70;;
22628;SDS011;11481;53.694;9.910;2023-02-28T17:11:49;6.45;;;2.00;;
22628;SDS011;11481;53.694;9.910;2023-02-28T17:14:16;6.28;;;2.20;;
22628;SDS011;11481;53.694;9.910;2023-02-28T17:16:42;5.53;;;2.30;;
22628;SDS011;11481;53.694;9.910;2023-02-28T17:19:11;6.30;;;2.17;;
22628;SDS011;11481;53.694;9.910;2023-02-28T17:21:40;8.02;;;2.72;;
22628;SDS011;11481;53.694;9.910;2023-02-28T17:24:10;5.28;;;2.47;;
22628;SDS011;11481;53.694;9.910;2023-02-28T17:26:50;10.90;;;3.50;;
22628;SDS011;11481;53.694;9.910;2023-02-28T17:29:18;7.55;;;3.28;;